createdAt,value
2019-05-22T00:02:05.684Z,43.47
2019-05-22T00:11:10.497Z,32.70
2019-05-22T00:14:07.182Z,29.87
2019-05-22T00:17:01.268Z,42.53
2019-05-22T00:19:39.779Z,37.93
2019-05-22T00:22:40.677Z,43.73
2019-05-22T00:25:38.270Z,46.47
2019-05-22T00:28:33.532Z,44.03
2019-05-22T00:31:52.595Z,47.63
2019-05-22T00:34:26.977Z,53.67
2019-05-22T00:37:18.015Z,28.63
2019-05-22T00:40:09.353Z,37.00
2019-05-22T00:45:24.775Z,45.67
2019-05-22T00:47:55.436Z,37.00
2019-05-22T00:50:46.461Z,57.30
2019-05-22T00:53:53.695Z,36.93
2019-05-22T00:57:10.808Z,37.97
2019-05-22T01:00:34.866Z,26.80
2019-05-22T01:03:10.769Z,41.80
2019-05-22T01:05:59.554Z,35.07
2019-05-22T01:08:42.211Z,38.43
2019-05-22T01:11:50.550Z,39.17
2019-05-22T01:14:42.933Z,34.20
2019-05-22T01:17:44.326Z,54.37
2019-05-22T01:20:37.177Z,22.77
2019-05-22T01:23:28.187Z,38.27
2019-05-22T01:26:19.995Z,25.57
2019-05-22T01:29:38.481Z,32.63
2019-05-22T01:32:28.416Z,29.47
2019-05-22T01:35:36.591Z,26.20
2019-05-22T01:38:39.990Z,21.37
2019-05-22T01:41:23.199Z,26.23
2019-05-22T01:44:06.752Z,32.07
2019-05-22T01:46:51.013Z,37.37
2019-05-22T01:49:34.698Z,21.83
2019-05-22T01:52:31.316Z,26.50
2019-05-22T01:55:05.278Z,24.23
2019-05-22T01:58:06.331Z,30.20
2019-05-22T02:00:53.724Z,22.20
2019-05-22T02:03:52.274Z,25.83
2019-05-22T02:06:47.875Z,29.87
2019-05-22T02:10:27.484Z,22.13
2019-05-22T02:13:01.981Z,21.30
2019-05-22T02:15:44.578Z,19.13
2019-05-22T02:18:49.500Z,25.20
2019-05-22T02:21:49.583Z,20.63
2019-05-22T02:25:32.859Z,20.27
2019-05-22T02:27:52.623Z,21.37
2019-05-22T02:31:15.534Z,21.63
2019-05-22T02:33:31.503Z,29.53
2019-05-22T02:36:20.470Z,28.20
2019-05-22T02:38:55.552Z,24.47
2019-05-22T02:41:43.732Z,24.60
2019-05-22T02:44:16.573Z,25.30
2019-05-22T02:46:47.172Z,23.13
2019-05-22T02:49:38.022Z,38.43
2019-05-22T02:52:45.498Z,36.40
2019-05-22T02:58:34.309Z,40.07
2019-05-22T03:01:27.281Z,26.60
2019-05-22T03:04:11.036Z,26.47
2019-05-22T03:06:41.631Z,61.83
2019-05-22T03:09:36.256Z,30.77
2019-05-22T03:12:19.227Z,28.37
2019-05-22T03:14:57.388Z,35.73
2019-05-22T03:17:31.562Z,28.40
2019-05-22T03:20:06.132Z,27.83
2019-05-22T03:22:47.893Z,27.97
2019-05-22T03:25:18.160Z,59.67
2019-05-22T03:27:57.922Z,27.30
2019-05-22T03:30:36.837Z,27.53
2019-05-22T03:33:23.957Z,27.80
2019-05-22T03:36:02.634Z,21.17
2019-05-22T03:38:59.706Z,28.83
2019-05-22T03:42:10.154Z,21.67
2019-05-22T03:44:49.620Z,51.57
2019-05-22T03:47:54.843Z,24.53
2019-05-22T03:50:32.298Z,37.27
2019-05-22T03:53:21.825Z,21.67
2019-05-22T03:55:59.253Z,47.83
2019-05-22T03:58:33.271Z,58.70
2019-05-22T04:01:06.426Z,29.77
2019-05-22T04:03:51.396Z,33.23
2019-05-22T04:09:26.702Z,30.73
2019-05-22T04:11:56.164Z,29.20
2019-05-22T04:15:29.875Z,30.47
2019-05-22T04:18:14.163Z,30.03
2019-05-22T04:20:49.645Z,48.00
2019-05-22T04:23:21.699Z,26.67
2019-05-22T04:26:46.503Z,30.93
2019-05-22T04:29:16.322Z,24.13
2019-05-22T04:32:39.471Z,33.10
2019-05-22T04:35:31.033Z,21.77
2019-05-22T04:38:01.153Z,27.77
2019-05-22T04:41:10.413Z,26.57
2019-05-22T04:44:07.562Z,26.23
2019-05-22T04:47:05.172Z,21.37
2019-05-22T04:49:35.175Z,23.30
2019-05-22T04:52:14.741Z,39.27
2019-05-22T04:54:54.108Z,18.90
2019-05-22T04:57:23.881Z,14.27
2019-05-22T05:00:00.427Z,17.83
2019-05-22T05:02:47.569Z,17.47
2019-05-22T05:05:35.085Z,12.57
2019-05-22T05:08:23.944Z,12.13
2019-05-22T05:11:06.139Z,13.63
2019-05-22T05:13:36.968Z,19.73
2019-05-22T05:16:56.469Z,12.83
2019-05-22T05:23:14.631Z,11.47
2019-05-22T05:26:05.929Z,11.10
2019-05-22T05:28:48.100Z,11.60
2019-05-22T05:35:16.716Z,10.33
2019-05-22T05:55:41.126Z,11.57
2019-05-22T05:59:24.829Z,12.03
2019-05-22T06:03:03.893Z,10.10
2019-05-22T06:21:03.959Z,8.97
2019-05-22T06:28:46.562Z,10.27
2019-05-22T06:39:41.166Z,9.80
2019-05-22T06:42:28.456Z,9.87
2019-05-22T06:45:22.570Z,9.37
2019-05-22T06:47:54.685Z,8.93
2019-05-22T06:51:17.128Z,8.60
2019-05-22T06:53:52.551Z,10.00
2019-05-22T07:00:30.862Z,6.87
2019-05-22T07:03:23.559Z,7.53
2019-05-22T07:06:31.898Z,8.37
2019-05-22T07:09:23.733Z,7.47
2019-05-22T07:15:37.844Z,7.30
2019-05-22T07:18:26.755Z,7.70
2019-05-22T07:21:08.047Z,6.57
2019-05-22T07:23:54.049Z,5.60
2019-05-22T07:29:53.023Z,5.93
2019-05-22T07:32:32.772Z,7.30
2019-05-22T07:35:09.727Z,5.97
2019-05-22T07:38:19.978Z,7.57
2019-05-22T07:41:31.475Z,6.73
2019-05-22T07:47:37.883Z,7.33
2019-05-22T07:50:36.047Z,7.20
2019-05-22T07:53:21.671Z,7.20
2019-05-22T07:59:46.399Z,6.90
2019-05-22T08:05:59.905Z,6.13
2019-05-22T08:20:05.090Z,7.03
2019-05-22T08:35:47.153Z,7.83
2019-05-22T08:38:30.932Z,9.70
2019-05-22T08:48:38.552Z,10.27
2019-05-22T08:59:43.753Z,13.13
2019-05-22T09:05:56.980Z,14.37
2019-05-22T09:08:26.920Z,14.03
2019-05-22T09:11:26.333Z,15.67
2019-05-22T09:14:35.975Z,17.80
2019-05-22T09:17:55.162Z,17.63
2019-05-22T09:20:49.480Z,17.53
2019-05-22T09:23:33.856Z,17.93
2019-05-22T09:32:34.676Z,14.03
2019-05-22T09:35:34.548Z,13.73
2019-05-22T09:38:06.454Z,14.43
2019-05-22T09:40:35.779Z,12.90
2019-05-22T09:43:06.885Z,13.20
2019-05-22T09:45:38.252Z,12.20
2019-05-22T09:48:31.398Z,12.67
2019-05-22T09:51:03.470Z,11.37
2019-05-22T09:53:35.375Z,11.50
2019-05-22T09:56:29.283Z,10.00
2019-05-22T10:02:43.853Z,10.60
2019-05-22T10:05:20.410Z,11.43
2019-05-22T10:08:11.710Z,11.30
2019-05-22T10:10:43.087Z,11.40
2019-05-22T10:13:19.113Z,9.70
2019-05-22T10:15:57.343Z,10.77
2019-05-22T10:18:29.743Z,9.77
2019-05-22T10:21:03.767Z,9.83
2019-05-22T10:23:40.196Z,9.53
2019-05-22T10:26:18.291Z,11.73
2019-05-22T10:28:52.317Z,13.13
2019-05-22T10:31:39.569Z,13.07
2019-05-22T10:34:13.527Z,15.90
2019-05-22T10:36:50.133Z,15.57
2019-05-22T10:39:27.043Z,17.10
2019-05-22T10:42:07.170Z,18.20
2019-05-22T10:48:23.469Z,17.00
2019-05-22T10:50:57.847Z,18.03
2019-05-22T10:53:34.486Z,18.13
2019-05-22T10:56:10.559Z,18.07
2019-05-22T10:58:53.417Z,18.93
2019-05-22T11:01:26.464Z,15.60
2019-05-22T11:04:02.679Z,16.17
2019-05-22T11:06:32.160Z,16.27
2019-05-22T11:09:02.539Z,16.03
2019-05-22T11:11:32.603Z,15.40
2019-05-22T11:14:09.516Z,15.17
2019-05-22T11:16:44.661Z,14.40
2019-05-22T11:19:21.835Z,15.43
2019-05-22T11:22:00.396Z,16.00
2019-05-22T11:24:35.386Z,13.53
2019-05-22T11:27:10.708Z,14.40
2019-05-22T11:29:48.690Z,13.90
2019-05-22T11:32:26.270Z,13.83
2019-05-22T11:35:03.432Z,14.47
2019-05-22T11:37:41.718Z,14.70
2019-05-22T11:40:23.177Z,15.73
2019-05-22T11:43:00.050Z,15.17
2019-05-22T11:45:44.782Z,14.07
2019-05-22T11:48:18.657Z,15.53
2019-05-22T11:51:03.986Z,14.17
2019-05-22T11:53:44.856Z,14.50
2019-05-22T11:56:10.252Z,13.80
2019-05-22T11:58:40.319Z,15.10
2019-05-22T12:01:13.747Z,16.50
2019-05-22T12:03:48.864Z,17.23
2019-05-22T12:06:33.801Z,15.87
2019-05-22T12:09:10.925Z,14.20
2019-05-22T12:11:43.696Z,17.27
2019-05-22T12:14:14.340Z,15.97
2019-05-22T12:17:12.201Z,18.20
2019-05-22T12:19:45.857Z,16.60
2019-05-22T12:22:19.838Z,15.03
2019-05-22T12:24:48.777Z,15.73
2019-05-22T12:27:18.452Z,16.13
2019-05-22T12:29:56.325Z,17.07
2019-05-22T12:32:46.508Z,15.83
2019-05-22T12:35:26.903Z,16.73
2019-05-22T12:37:59.940Z,16.87
2019-05-22T12:40:33.840Z,16.73
2019-05-22T12:43:12.657Z,16.03
2019-05-22T12:45:44.028Z,16.47
2019-05-22T12:48:13.891Z,16.80
2019-05-22T12:50:47.173Z,16.10
2019-05-22T12:53:17.067Z,16.63
2019-05-22T12:55:47.387Z,16.13
2019-05-22T12:58:20.531Z,15.43
2019-05-22T13:00:51.823Z,16.00
2019-05-22T13:03:24.923Z,16.63
2019-05-22T13:06:17.899Z,16.47
2019-05-22T13:08:59.273Z,16.00
2019-05-22T13:11:29.766Z,15.10
2019-05-22T13:13:59.178Z,16.70
2019-05-22T13:16:33.199Z,17.37
2019-05-22T13:19:03.815Z,16.13
2019-05-22T13:21:37.826Z,16.50
2019-05-22T13:24:28.002Z,15.50
2019-05-22T13:26:59.095Z,15.13
2019-05-22T13:29:31.384Z,16.30
2019-05-22T13:32:01.477Z,14.83
2019-05-22T13:34:32.801Z,17.23
2019-05-22T13:37:03.930Z,15.40
2019-05-22T13:39:33.617Z,15.77
2019-05-22T13:42:05.275Z,17.00
2019-05-22T13:44:35.072Z,16.67
2019-05-22T13:47:06.293Z,14.70
2019-05-22T13:49:39.276Z,15.00
2019-05-22T13:52:14.439Z,15.87
2019-05-22T13:54:46.804Z,15.60
2019-05-22T13:57:17.392Z,14.93
2019-05-22T13:59:47.328Z,15.47
2019-05-22T14:02:19.484Z,16.67
2019-05-22T14:04:49.054Z,14.80
2019-05-22T14:07:22.069Z,13.63
2019-05-22T14:09:55.541Z,14.27
2019-05-22T14:12:24.953Z,13.60
2019-05-22T14:15:00.826Z,13.73
2019-05-22T14:17:32.503Z,12.97
2019-05-22T14:20:02.437Z,13.63
2019-05-22T14:22:32.211Z,12.43
2019-05-22T14:25:04.679Z,12.73
2019-05-22T14:27:36.082Z,12.37
2019-05-22T14:30:12.164Z,11.67
2019-05-22T14:32:43.661Z,13.00
2019-05-22T14:35:15.600Z,12.27
2019-05-22T14:37:45.014Z,11.77
2019-05-22T14:40:17.926Z,10.73
2019-05-22T14:42:48.184Z,12.80
2019-05-22T14:45:18.104Z,11.80
2019-05-22T14:47:47.861Z,13.03
2019-05-22T14:50:18.167Z,11.93
2019-05-22T14:52:50.695Z,12.73
2019-05-22T14:55:19.676Z,9.77
2019-05-22T14:57:50.232Z,12.57
2019-05-22T15:00:22.646Z,12.77
2019-05-22T15:02:56.167Z,12.27
2019-05-22T15:05:23.929Z,12.17
2019-05-22T15:07:57.184Z,12.37
2019-05-22T15:10:27.675Z,11.57
2019-05-22T15:12:57.685Z,12.27
2019-05-22T15:15:27.527Z,12.23
2019-05-22T15:18:03.840Z,12.10
2019-05-22T15:20:37.630Z,12.13
2019-05-22T15:23:08.082Z,10.47
2019-05-22T15:25:42.735Z,12.30
2019-05-22T15:28:13.311Z,11.53
2019-05-22T15:30:43.484Z,10.80
2019-05-22T15:33:13.375Z,11.13
2019-05-22T15:35:48.571Z,10.80
2019-05-22T15:38:22.052Z,11.03
2019-05-22T15:40:53.102Z,11.00
2019-05-22T15:43:24.578Z,11.43
2019-05-22T15:45:57.367Z,10.73
2019-05-22T15:48:31.380Z,10.97
2019-05-22T15:51:10.085Z,10.27
2019-05-22T15:53:43.950Z,11.37
2019-05-22T15:56:14.541Z,11.13
2019-05-22T15:58:48.870Z,11.33
2019-05-22T16:01:25.046Z,11.60
2019-05-22T16:03:58.294Z,10.30
2019-05-22T16:06:30.511Z,9.63
2019-05-22T16:09:04.090Z,10.77
2019-05-22T16:11:37.555Z,10.30
2019-05-22T16:14:17.089Z,10.17
2019-05-22T16:16:53.280Z,10.20
2019-05-22T16:19:36.285Z,9.40
2019-05-22T16:22:17.970Z,10.23
2019-05-22T16:25:08.248Z,10.87
2019-05-22T16:27:56.336Z,9.37
2019-05-22T16:30:27.644Z,10.93
2019-05-22T16:32:57.700Z,9.87
2019-05-22T16:35:29.609Z,9.73
2019-05-22T16:38:03.300Z,9.97
2019-05-22T16:40:33.577Z,10.33
2019-05-22T16:43:06.262Z,9.63
2019-05-22T16:45:40.756Z,9.57
2019-05-22T16:48:26.048Z,9.60
2019-05-22T16:50:43.116Z,9.27
2019-05-22T16:53:13.728Z,9.03
2019-05-22T16:55:45.331Z,8.50
2019-05-22T16:58:16.798Z,9.27
2019-05-22T17:00:47.034Z,8.37
2019-05-22T17:03:17.197Z,8.73
2019-05-22T17:05:47.538Z,9.50
2019-05-22T17:08:17.175Z,9.27
2019-05-22T17:10:51.203Z,10.07
2019-05-22T17:13:28.065Z,8.87
2019-05-22T17:16:02.849Z,8.43
2019-05-22T17:18:46.702Z,9.00
2019-05-22T17:21:12.071Z,8.53
2019-05-22T17:23:48.600Z,8.83
2019-05-22T17:26:27.658Z,9.17
2019-05-22T17:29:04.447Z,9.77
2019-05-22T17:31:40.789Z,8.87
2019-05-22T17:34:32.459Z,9.27
2019-05-22T17:37:16.485Z,8.03
2019-05-22T17:39:50.884Z,8.47
2019-05-22T17:42:37.074Z,8.20
2019-05-22T17:45:18.024Z,9.50
2019-05-22T17:47:52.155Z,11.43
2019-05-22T17:50:32.513Z,8.57
2019-05-22T17:53:09.468Z,8.43
2019-05-22T17:55:51.649Z,9.50
2019-05-22T17:58:30.678Z,9.43
2019-05-22T18:01:21.583Z,9.40
2019-05-22T18:03:58.244Z,8.60
2019-05-22T18:06:31.000Z,8.60
2019-05-22T18:09:40.896Z,10.17
2019-05-22T18:12:15.784Z,9.07
2019-05-22T18:14:46.753Z,9.37
2019-05-22T18:17:20.618Z,9.60
2019-05-22T18:20:17.795Z,9.87
2019-05-22T18:22:49.411Z,10.57
2019-05-22T18:25:24.611Z,9.83
2019-05-22T18:28:04.819Z,9.50
2019-05-22T18:30:47.004Z,9.70
2019-05-22T18:34:29.003Z,9.73
2019-05-22T18:38:04.901Z,9.77
2019-05-22T18:41:28.580Z,10.37
2019-05-22T18:44:04.508Z,9.70
2019-05-22T18:46:35.576Z,10.50
2019-05-22T18:49:24.712Z,9.60
2019-05-22T18:52:50.885Z,9.00
2019-05-22T18:56:31.049Z,10.37
2019-05-22T19:00:22.153Z,11.73
2019-05-22T19:17:38.778Z,10.57
2019-05-22T19:20:10.526Z,11.27
2019-05-22T19:22:58.597Z,11.30
2019-05-22T19:25:15.272Z,10.17
2019-05-22T19:27:50.657Z,10.17
2019-05-22T19:30:22.099Z,11.97
2019-05-22T19:32:53.637Z,10.37
2019-05-22T19:35:23.969Z,10.77
2019-05-22T19:38:01.249Z,11.47
2019-05-22T19:40:30.943Z,10.63
2019-05-22T19:43:02.520Z,10.73
2019-05-22T19:45:37.631Z,11.17
2019-05-22T19:48:09.857Z,10.83
2019-05-22T19:51:51.539Z,10.57
2019-05-22T20:01:24.317Z,11.17
2019-05-22T20:05:24.703Z,9.47
2019-05-22T20:08:01.620Z,10.60
2019-05-22T20:10:28.914Z,10.50
2019-05-22T20:13:01.088Z,10.87
2019-05-22T20:15:31.263Z,10.73
2019-05-22T20:18:01.827Z,11.70
2019-05-22T20:20:31.800Z,10.77
2019-05-22T20:23:04.336Z,10.40
2019-05-22T20:25:37.956Z,10.87
2019-05-22T20:28:09.446Z,10.63
2019-05-22T20:31:10.627Z,9.53
2019-05-22T20:34:30.363Z,9.27
2019-05-22T20:37:09.678Z,10.87
2019-05-22T20:39:39.848Z,10.60
2019-05-22T20:42:17.498Z,12.03
2019-05-22T20:44:53.053Z,10.97
2019-05-22T20:47:27.463Z,10.67
2019-05-22T20:50:00.109Z,10.97
2019-05-22T20:52:32.215Z,10.67
2019-05-22T20:55:07.529Z,11.43
2019-05-22T20:57:45.674Z,12.37
2019-05-22T21:00:27.031Z,11.97
2019-05-22T21:03:23.521Z,11.80
2019-05-22T21:06:33.311Z,11.23
2019-05-22T21:09:11.389Z,12.47
2019-05-22T21:11:43.443Z,11.37
2019-05-22T21:14:14.971Z,13.13
2019-05-22T21:16:48.536Z,12.13
2019-05-22T21:19:27.401Z,12.07
2019-05-22T21:22:01.602Z,12.20
2019-05-22T21:24:35.990Z,12.03
2019-05-22T21:27:07.813Z,11.50
2019-05-22T21:29:40.404Z,12.40
2019-05-22T21:32:12.081Z,12.47
2019-05-22T21:34:45.945Z,11.07
2019-05-22T21:37:27.547Z,12.03
2019-05-22T21:40:08.145Z,12.90
2019-05-22T21:42:54.468Z,11.57
2019-05-22T21:45:59.149Z,10.83
2019-05-22T21:48:35.426Z,11.23
2019-05-22T21:51:11.986Z,11.40
2019-05-22T21:53:50.061Z,10.77
2019-05-22T21:56:29.298Z,11.83
2019-05-22T21:59:06.299Z,10.40
2019-05-22T22:01:53.534Z,11.30
2019-05-22T22:04:43.887Z,10.40
2019-05-22T22:07:18.909Z,11.33
2019-05-22T22:09:56.557Z,10.70
2019-05-22T22:12:36.104Z,10.53
2019-05-22T22:15:13.146Z,10.33
2019-05-22T22:17:51.741Z,9.83
2019-05-22T22:20:39.121Z,10.90
2019-05-22T22:23:19.202Z,10.50
2019-05-22T22:25:52.324Z,11.03
2019-05-22T22:28:33.148Z,10.20
2019-05-22T22:31:12.751Z,10.03
2019-05-22T22:33:51.994Z,9.93
2019-05-22T22:36:30.375Z,9.53
2019-05-22T22:39:07.551Z,10.77
2019-05-22T22:41:42.200Z,10.77
2019-05-22T22:44:17.597Z,11.03
2019-05-22T22:47:15.457Z,11.50
2019-05-22T22:49:50.332Z,10.03
2019-05-22T22:52:22.550Z,9.67
2019-05-22T22:54:53.260Z,10.90
2019-05-22T22:57:24.581Z,11.23
2019-05-22T23:00:00.933Z,11.43
2019-05-22T23:02:37.106Z,9.63
2019-05-22T23:05:14.350Z,10.87
2019-05-22T23:07:49.010Z,10.33
2019-05-22T23:10:24.770Z,10.60
2019-05-22T23:12:59.850Z,12.00
2019-05-22T23:15:44.163Z,11.67
2019-05-22T23:18:52.364Z,10.23
2019-05-22T23:21:23.242Z,11.47
2019-05-22T23:23:53.576Z,12.13
2019-05-22T23:26:28.162Z,12.77
2019-05-22T23:29:07.121Z,11.40
2019-05-22T23:31:44.687Z,11.03
2019-05-22T23:34:22.053Z,11.70
2019-05-22T23:36:56.412Z,12.63
2019-05-22T23:39:35.281Z,12.30
2019-05-22T23:42:14.443Z,11.97
2019-05-22T23:44:48.633Z,12.67
2019-05-22T23:47:20.570Z,12.30
2019-05-22T23:49:51.469Z,12.13
2019-05-22T23:52:21.182Z,11.77
2019-05-22T23:54:53.706Z,11.40
2019-05-22T23:57:23.963Z,11.20
